sensor_id;sensor_type;location;lat;lon;timestamp;P1;durP1;ratioP1;P2;durP2;ratioP2
18280;SDS011;9266;51.132;17.062;2023-06-10T00:00:12;37.60;;;31.67;;
18280;SDS011;9266;51.132;17.062;2023-06-10T00:02:40;35.60;;;30.70;;
18280;SDS011;9266;51.132;17.062;2023-06-10T00:05:09;37.57;;;33.20;;
18280;SDS011;9266;51.132;17.062;2023-06-10T00:07:36;38.27;;;33.73;;
18280;SDS011;9266;51.132;17.062;2023-06-10T00:10:04;36.03;;;31.37;;
18280;SDS011;9266;51.132;17.062;2023-06-10T00:12:32;45.57;;;35.73;;
18280;SDS011;9266;51.132;17.062;2023-06-10T00:15:05;41.63;;;34.63;;
18280;SDS011;9266;51.132;17.062;2023-06-10T00:17:33;41.77;;;35.33;;
18280;SDS011;9266;51.132;17.062;2023-06-10T00:20:04;40.13;;;34.10;;
18280;SDS011;9266;51.132;17.062;2023-06-10T00:22:34;42.70;;;34.97;;
18280;SDS011;9266;51.132;17.062;2023-06-10T00:25:01;46.37;;;34.97;;
18280;SDS011;9266;51.132;17.062;2023-06-10T00:27:29;44.60;;;35.80;;
18280;SDS011;9266;51.132;17.062;2023-06-10T00:30:00;47.23;;;34.57;;
18280;SDS011;9266;51.132;17.062;2023-06-10T00:32:28;48.97;;;36.93;;
18280;SDS011;9266;51.132;17.062;2023-06-10T00:34:56;43.97;;;36.37;;
18280;SDS011;9266;51.132;17.062;2023-06-10T00:37:23;43.70;;;35.27;;
18280;SDS011;9266;51.132;17.062;2023-06-10T00:39:50;43.90;;;35.00;;
18280;SDS011;9266;51.132;17.062;2023-06-10T00:42:17;49.17;;;35.43;;
18280;SDS011;9266;51.132;17.062;2023-06-10T00:44:44;45.07;;;34.63;;
18280;SDS011;9266;51.132;17.062;2023-06-10T00:47:11;44.90;;;33.50;;
18280;SDS011;9266;51.132;17.062;2023-06-10T00:49:39;42.47;;;32.67;;
18280;SDS011;9266;51.132;17.062;2023-06-10T00:52:07;42.60;;;34.40;;
18280;SDS011;9266;51.132;17.062;2023-06-10T00:54:36;44.73;;;34.43;;
18280;SDS011;9266;51.132;17.062;2023-06-10T00:57:05;43.27;;;34.20;;
18280;SDS011;9266;51.132;17.062;2023-06-10T00:59:32;45.83;;;35.87;;
18280;SDS011;9266;51.132;17.062;2023-06-10T01:02:00;45.83;;;35.80;;
18280;SDS011;9266;51.132;17.062;2023-06-10T01:04:28;44.10;;;36.10;;
18280;SDS011;9266;51.132;17.062;2023-06-10T01:07:00;42.93;;;34.00;;
18280;SDS011;9266;51.132;17.062;2023-06-10T01:09:38;49.47;;;35.83;;
18280;SDS011;9266;51.132;17.062;2023-06-10T01:12:12;45.13;;;34.30;;
18280;SDS011;9266;51.132;17.062;2023-06-10T01:14:45;45.67;;;33.63;;
18280;SDS011;9266;51.132;17.062;2023-06-10T01:17:14;45.97;;;35.70;;
18280;SDS011;9266;51.132;17.062;2023-06-10T01:19:43;50.83;;;36.60;;
18280;SDS011;9266;51.132;17.062;2023-06-10T01:22:11;46.53;;;36.53;;
18280;SDS011;9266;51.132;17.062;2023-06-10T01:24:41;47.97;;;36.97;;
18280;SDS011;9266;51.132;17.062;2023-06-10T01:27:09;45.30;;;35.23;;
18280;SDS011;9266;51.132;17.062;2023-06-10T01:29:41;43.97;;;34.40;;
18280;SDS011;9266;51.132;17.062;2023-06-10T01:32:15;45.47;;;34.93;;
18280;SDS011;9266;51.132;17.062;2023-06-10T01:34:47;43.60;;;34.60;;
18280;SDS011;9266;51.132;17.062;2023-06-10T01:37:19;41.80;;;33.33;;
18280;SDS011;9266;51.132;17.062;2023-06-10T01:39:49;39.33;;;32.50;;
18280;SDS011;9266;51.132;17.062;2023-06-10T01:42:16;41.67;;;34.33;;
18280;SDS011;9266;51.132;17.062;2023-06-10T01:44:44;41.70;;;33.67;;
18280;SDS011;9266;51.132;17.062;2023-06-10T01:47:11;47.00;;;35.47;;
18280;SDS011;9266;51.132;17.062;2023-06-10T01:49:38;52.27;;;37.97;;
18280;SDS011;9266;51.132;17.062;2023-06-10T01:52:06;44.70;;;36.10;;
18280;SDS011;9266;51.132;17.062;2023-06-10T01:54:34;44.40;;;36.43;;
18280;SDS011;9266;51.132;17.062;2023-06-10T01:57:02;39.47;;;34.23;;
18280;SDS011;9266;51.132;17.062;2023-06-10T01:59:31;41.60;;;33.33;;
18280;SDS011;9266;51.132;17.062;2023-06-10T02:01:58;41.43;;;32.93;;
18280;SDS011;9266;51.132;17.062;2023-06-10T02:04:25;38.87;;;32.63;;
18280;SDS011;9266;51.132;17.062;2023-06-10T02:06:52;36.50;;;32.33;;
18280;SDS011;9266;51.132;17.062;2023-06-10T02:09:20;38.87;;;31.17;;
18280;SDS011;9266;51.132;17.062;2023-06-10T02:11:49;36.27;;;29.77;;
18280;SDS011;9266;51.132;17.062;2023-06-10T02:14:16;38.77;;;30.80;;
18280;SDS011;9266;51.132;17.062;2023-06-10T02:16:43;34.07;;;29.20;;
18280;SDS011;9266;51.132;17.062;2023-06-10T02:19:12;31.57;;;28.27;;
18280;SDS011;9266;51.132;17.062;2023-06-10T02:21:39;32.07;;;28.27;;
18280;SDS011;9266;51.132;17.062;2023-06-10T02:24:09;33.57;;;28.60;;
18280;SDS011;9266;51.132;17.062;2023-06-10T02:26:36;30.73;;;27.50;;
18280;SDS011;9266;51.132;17.062;2023-06-10T02:29:04;29.50;;;26.40;;
18280;SDS011;9266;51.132;17.062;2023-06-10T02:31:31;32.77;;;26.60;;
18280;SDS011;9266;51.132;17.062;2023-06-10T02:34:00;32.30;;;27.97;;
18280;SDS011;9266;51.132;17.062;2023-06-10T02:36:28;30.97;;;27.57;;
18280;SDS011;9266;51.132;17.062;2023-06-10T02:38:55;32.97;;;28.27;;
18280;SDS011;9266;51.132;17.062;2023-06-10T02:41:22;30.97;;;27.60;;
18280;SDS011;9266;51.132;17.062;2023-06-10T02:43:50;29.73;;;26.57;;
18280;SDS011;9266;51.132;17.062;2023-06-10T02:46:18;31.10;;;25.97;;
18280;SDS011;9266;51.132;17.062;2023-06-10T02:48:45;29.73;;;26.63;;
18280;SDS011;9266;51.132;17.062;2023-06-10T02:51:14;30.50;;;26.60;;
18280;SDS011;9266;51.132;17.062;2023-06-10T02:53:41;30.00;;;26.90;;
18280;SDS011;9266;51.132;17.062;2023-06-10T02:56:08;29.47;;;26.37;;
18280;SDS011;9266;51.132;17.062;2023-06-10T02:58:37;28.70;;;25.57;;
18280;SDS011;9266;51.132;17.062;2023-06-10T03:01:04;28.43;;;25.60;;
18280;SDS011;9266;51.132;17.062;2023-06-10T03:03:32;28.10;;;25.07;;
18280;SDS011;9266;51.132;17.062;2023-06-10T03:06:01;28.90;;;25.57;;
18280;SDS011;9266;51.132;17.062;2023-06-10T03:08:28;28.67;;;25.47;;
18280;SDS011;9266;51.132;17.062;2023-06-10T03:10:55;27.53;;;23.10;;
18280;SDS011;9266;51.132;17.062;2023-06-10T03:13:23;29.17;;;24.20;;
18280;SDS011;9266;51.132;17.062;2023-06-10T03:15:50;28.73;;;25.63;;
18280;SDS011;9266;51.132;17.062;2023-06-10T03:18:17;28.30;;;25.23;;
18280;SDS011;9266;51.132;17.062;2023-06-10T03:20:46;27.53;;;24.53;;
18280;SDS011;9266;51.132;17.062;2023-06-10T03:23:14;28.87;;;25.87;;
18280;SDS011;9266;51.132;17.062;2023-06-10T03:25:41;27.73;;;24.80;;
18280;SDS011;9266;51.132;17.062;2023-06-10T03:28:09;28.13;;;25.27;;
18280;SDS011;9266;51.132;17.062;2023-06-10T03:30:36;27.27;;;24.30;;
18280;SDS011;9266;51.132;17.062;2023-06-10T03:33:03;27.67;;;24.83;;
18280;SDS011;9266;51.132;17.062;2023-06-10T03:35:30;30.30;;;27.13;;
18280;SDS011;9266;51.132;17.062;2023-06-10T03:37:59;28.57;;;25.70;;
18280;SDS011;9266;51.132;17.062;2023-06-10T03:40:26;31.50;;;28.07;;
18280;SDS011;9266;51.132;17.062;2023-06-10T03:42:55;31.63;;;27.70;;
18280;SDS011;9266;51.132;17.062;2023-06-10T03:45:22;30.33;;;27.10;;
18280;SDS011;9266;51.132;17.062;2023-06-10T03:47:49;31.67;;;27.10;;
18280;SDS011;9266;51.132;17.062;2023-06-10T03:50:16;28.93;;;25.93;;
18280;SDS011;9266;51.132;17.062;2023-06-10T03:52:43;28.27;;;25.10;;
18280;SDS011;9266;51.132;17.062;2023-06-10T03:55:13;28.37;;;25.17;;
18280;SDS011;9266;51.132;17.062;2023-06-10T03:57:41;28.70;;;25.67;;
18280;SDS011;9266;51.132;17.062;2023-06-10T04:00:09;28.83;;;25.83;;
18280;SDS011;9266;51.132;17.062;2023-06-10T04:02:38;28.63;;;25.73;;
18280;SDS011;9266;51.132;17.062;2023-06-10T04:05:10;28.77;;;25.53;;
18280;SDS011;9266;51.132;17.062;2023-06-10T04:07:37;29.03;;;25.60;;
18280;SDS011;9266;51.132;17.062;2023-06-10T04:10:06;26.60;;;23.97;;
18280;SDS011;9266;51.132;17.062;2023-06-10T04:12:36;26.37;;;23.50;;
18280;SDS011;9266;51.132;17.062;2023-06-10T04:15:03;25.90;;;23.33;;
18280;SDS011;9266;51.132;17.062;2023-06-10T04:17:31;24.67;;;22.33;;
18280;SDS011;9266;51.132;17.062;2023-06-10T04:19:58;25.00;;;22.43;;
18280;SDS011;9266;51.132;17.062;2023-06-10T04:22:25;23.93;;;21.73;;
18280;SDS011;9266;51.132;17.062;2023-06-10T04:24:53;24.20;;;21.70;;
18280;SDS011;9266;51.132;17.062;2023-06-10T04:27:20;24.43;;;21.97;;
18280;SDS011;9266;51.132;17.062;2023-06-10T04:29:51;23.73;;;21.33;;
18280;SDS011;9266;51.132;17.062;2023-06-10T04:32:18;22.53;;;20.37;;
18280;SDS011;9266;51.132;17.062;2023-06-10T04:34:45;24.90;;;22.50;;
18280;SDS011;9266;51.132;17.062;2023-06-10T04:37:12;22.47;;;20.30;;
18280;SDS011;9266;51.132;17.062;2023-06-10T04:39:39;22.87;;;20.57;;
18280;SDS011;9266;51.132;17.062;2023-06-10T04:42:07;22.47;;;20.20;;
18280;SDS011;9266;51.132;17.062;2023-06-10T04:44:34;23.80;;;21.33;;
18280;SDS011;9266;51.132;17.062;2023-06-10T04:47:07;22.63;;;20.43;;
18280;SDS011;9266;51.132;17.062;2023-06-10T04:49:34;22.87;;;20.57;;
18280;SDS011;9266;51.132;17.062;2023-06-10T04:52:01;22.70;;;20.50;;
18280;SDS011;9266;51.132;17.062;2023-06-10T04:54:29;24.23;;;21.93;;
18280;SDS011;9266;51.132;17.062;2023-06-10T04:56:59;23.73;;;21.23;;
18280;SDS011;9266;51.132;17.062;2023-06-10T04:59:26;24.10;;;21.80;;
18280;SDS011;9266;51.132;17.062;2023-06-10T05:01:53;24.43;;;21.87;;
18280;SDS011;9266;51.132;17.062;2023-06-10T05:04:21;24.73;;;22.20;;
18280;SDS011;9266;51.132;17.062;2023-06-10T05:06:49;24.40;;;22.10;;
18280;SDS011;9266;51.132;17.062;2023-06-10T05:09:17;25.10;;;22.67;;
18280;SDS011;9266;51.132;17.062;2023-06-10T05:11:44;25.90;;;23.43;;
18280;SDS011;9266;51.132;17.062;2023-06-10T05:14:11;24.37;;;21.87;;
18280;SDS011;9266;51.132;17.062;2023-06-10T05:16:40;25.53;;;22.93;;
18280;SDS011;9266;51.132;17.062;2023-06-10T05:19:08;25.47;;;22.90;;
18280;SDS011;9266;51.132;17.062;2023-06-10T05:21:36;24.60;;;22.10;;
18280;SDS011;9266;51.132;17.062;2023-06-10T05:24:04;22.73;;;20.73;;
18280;SDS011;9266;51.132;17.062;2023-06-10T05:26:31;24.57;;;22.23;;
18280;SDS011;9266;51.132;17.062;2023-06-10T05:29:02;23.67;;;21.43;;
18280;SDS011;9266;51.132;17.062;2023-06-10T05:31:29;22.33;;;20.30;;
18280;SDS011;9266;51.132;17.062;2023-06-10T05:34:02;22.07;;;19.97;;
18280;SDS011;9266;51.132;17.062;2023-06-10T05:36:30;22.53;;;20.23;;
18280;SDS011;9266;51.132;17.062;2023-06-10T05:38:59;23.10;;;20.90;;
18280;SDS011;9266;51.132;17.062;2023-06-10T05:41:26;21.30;;;19.20;;
18280;SDS011;9266;51.132;17.062;2023-06-10T05:43:53;21.57;;;19.23;;
18280;SDS011;9266;51.132;17.062;2023-06-10T05:46:20;20.67;;;18.67;;
18280;SDS011;9266;51.132;17.062;2023-06-10T05:48:47;20.77;;;18.80;;
18280;SDS011;9266;51.132;17.062;2023-06-10T05:51:14;20.43;;;18.53;;
18280;SDS011;9266;51.132;17.062;2023-06-10T05:53:41;19.37;;;17.63;;
18280;SDS011;9266;51.132;17.062;2023-06-10T05:56:12;18.73;;;16.83;;
18280;SDS011;9266;51.132;17.062;2023-06-10T05:58:47;17.30;;;15.70;;
18280;SDS011;9266;51.132;17.062;2023-06-10T06:01:15;17.80;;;16.07;;
18280;SDS011;9266;51.132;17.062;2023-06-10T06:03:42;18.40;;;16.70;;
18280;SDS011;9266;51.132;17.062;2023-06-10T06:06:12;18.30;;;16.50;;
18280;SDS011;9266;51.132;17.062;2023-06-10T06:08:39;18.53;;;16.73;;
18280;SDS011;9266;51.132;17.062;2023-06-10T06:11:06;17.60;;;15.87;;
18280;SDS011;9266;51.132;17.062;2023-06-10T06:13:35;18.67;;;16.83;;
18280;SDS011;9266;51.132;17.062;2023-06-10T06:16:02;18.73;;;16.90;;
18280;SDS011;9266;51.132;17.062;2023-06-10T06:18:29;18.97;;;17.20;;
18280;SDS011;9266;51.132;17.062;2023-06-10T06:20:56;19.40;;;17.40;;
18280;SDS011;9266;51.132;17.062;2023-06-10T06:23:24;18.67;;;16.80;;
18280;SDS011;9266;51.132;17.062;2023-06-10T06:25:51;17.93;;;16.27;;
18280;SDS011;9266;51.132;17.062;2023-06-10T06:28:21;18.53;;;16.83;;
18280;SDS011;9266;51.132;17.062;2023-06-10T06:30:49;18.90;;;17.00;;
18280;SDS011;9266;51.132;17.062;2023-06-10T06:33:16;18.17;;;16.50;;
18280;SDS011;9266;51.132;17.062;2023-06-10T06:35:44;19.60;;;17.70;;
18280;SDS011;9266;51.132;17.062;2023-06-10T06:38:11;18.23;;;16.57;;
18280;SDS011;9266;51.132;17.062;2023-06-10T06:40:41;18.43;;;16.60;;
18280;SDS011;9266;51.132;17.062;2023-06-10T06:43:08;18.53;;;16.83;;
18280;SDS011;9266;51.132;17.062;2023-06-10T06:45:35;19.10;;;17.20;;
18280;SDS011;9266;51.132;17.062;2023-06-10T06:48:04;17.13;;;15.53;;
18280;SDS011;9266;51.132;17.062;2023-06-10T06:50:31;16.63;;;15.13;;
18280;SDS011;9266;51.132;17.062;2023-06-10T06:52:58;17.10;;;15.50;;
18280;SDS011;9266;51.132;17.062;2023-06-10T06:55:28;17.63;;;16.07;;
18280;SDS011;9266;51.132;17.062;2023-06-10T06:57:55;16.33;;;14.83;;
18280;SDS011;9266;51.132;17.062;2023-06-10T07:00:23;17.23;;;15.73;;
18280;SDS011;9266;51.132;17.062;2023-06-10T07:02:50;17.80;;;16.10;;
18280;SDS011;9266;51.132;17.062;2023-06-10T07:05:19;18.63;;;16.83;;
18280;SDS011;9266;51.132;17.062;2023-06-10T07:07:46;19.57;;;17.77;;
18280;SDS011;9266;51.132;17.062;2023-06-10T07:10:13;17.77;;;16.27;;
18280;SDS011;9266;51.132;17.062;2023-06-10T07:12:40;16.90;;;15.23;;
18280;SDS011;9266;51.132;17.062;2023-06-10T07:15:08;18.80;;;16.90;;
18280;SDS011;9266;51.132;17.062;2023-06-10T07:17:35;17.00;;;15.33;;
18280;SDS011;9266;51.132;17.062;2023-06-10T07:20:02;17.30;;;15.60;;
18280;SDS011;9266;51.132;17.062;2023-06-10T07:22:31;16.90;;;15.30;;
18280;SDS011;9266;51.132;17.062;2023-06-10T07:24:59;16.63;;;14.93;;
18280;SDS011;9266;51.132;17.062;2023-06-10T07:27:26;16.87;;;14.53;;
18280;SDS011;9266;51.132;17.062;2023-06-10T07:29:55;16.47;;;14.83;;
18280;SDS011;9266;51.132;17.062;2023-06-10T07:32:22;16.40;;;14.57;;
18280;SDS011;9266;51.132;17.062;2023-06-10T07:34:49;16.37;;;14.77;;
18280;SDS011;9266;51.132;17.062;2023-06-10T07:37:16;17.27;;;15.37;;
18280;SDS011;9266;51.132;17.062;2023-06-10T07:39:47;15.80;;;14.47;;
18280;SDS011;9266;51.132;17.062;2023-06-10T07:42:14;15.00;;;13.57;;
18280;SDS011;9266;51.132;17.062;2023-06-10T07:44:42;14.93;;;13.60;;
18280;SDS011;9266;51.132;17.062;2023-06-10T07:47:12;15.57;;;14.07;;
18280;SDS011;9266;51.132;17.062;2023-06-10T07:49:39;14.90;;;13.20;;
18280;SDS011;9266;51.132;17.062;2023-06-10T07:52:07;15.27;;;13.77;;
18280;SDS011;9266;51.132;17.062;2023-06-10T07:54:34;14.85;;;13.45;;
18280;SDS011;9266;51.132;17.062;2023-06-10T07:57:03;15.30;;;13.90;;
18280;SDS011;9266;51.132;17.062;2023-06-10T07:59:32;14.93;;;13.50;;
18280;SDS011;9266;51.132;17.062;2023-06-10T08:01:59;14.77;;;13.38;;
18280;SDS011;9266;51.132;17.062;2023-06-10T08:04:26;13.82;;;12.52;;
18280;SDS011;9266;51.132;17.062;2023-06-10T08:06:53;14.52;;;12.13;;
18280;SDS011;9266;51.132;17.062;2023-06-10T08:09:20;12.52;;;11.20;;
18280;SDS011;9266;51.132;17.062;2023-06-10T08:11:50;11.50;;;10.40;;
18280;SDS011;9266;51.132;17.062;2023-06-10T08:14:19;11.63;;;10.60;;
18280;SDS011;9266;51.132;17.062;2023-06-10T08:16:46;12.30;;;10.88;;
18280;SDS011;9266;51.132;17.062;2023-06-10T08:19:13;11.60;;;10.45;;
18280;SDS011;9266;51.132;17.062;2023-06-10T08:21:42;11.15;;;9.93;;
18280;SDS011;9266;51.132;17.062;2023-06-10T08:24:09;9.85;;;8.95;;
18280;SDS011;9266;51.132;17.062;2023-06-10T08:26:36;9.25;;;8.18;;
18280;SDS011;9266;51.132;17.062;2023-06-10T08:29:08;9.65;;;8.63;;
18280;SDS011;9266;51.132;17.062;2023-06-10T08:31:36;9.55;;;8.65;;
18280;SDS011;9266;51.132;17.062;2023-06-10T08:34:21;10.52;;;8.70;;
18280;SDS011;9266;51.132;17.062;2023-06-10T08:36:49;9.98;;;8.98;;
18280;SDS011;9266;51.132;17.062;2023-06-10T08:39:23;10.05;;;9.18;;
18280;SDS011;9266;51.132;17.062;2023-06-10T08:41:56;10.20;;;9.20;;
18280;SDS011;9266;51.132;17.062;2023-06-10T08:44:35;10.48;;;9.48;;
18280;SDS011;9266;51.132;17.062;2023-06-10T08:47:12;10.15;;;9.20;;
18280;SDS011;9266;51.132;17.062;2023-06-10T08:49:44;9.70;;;8.65;;
18280;SDS011;9266;51.132;17.062;2023-06-10T08:52:14;9.60;;;8.77;;
18280;SDS011;9266;51.132;17.062;2023-06-10T08:54:43;9.40;;;8.30;;
18280;SDS011;9266;51.132;17.062;2023-06-10T08:57:15;11.43;;;7.75;;
18280;SDS011;9266;51.132;17.062;2023-06-10T08:59:55;9.43;;;8.50;;
18280;SDS011;9266;51.132;17.062;2023-06-10T09:02:27;9.25;;;8.10;;
18280;SDS011;9266;51.132;17.062;2023-06-10T09:05:05;8.38;;;7.15;;
18280;SDS011;9266;51.132;17.062;2023-06-10T09:07:33;7.78;;;6.97;;
18280;SDS011;9266;51.132;17.062;2023-06-10T09:10:02;9.13;;;7.18;;
18280;SDS011;9266;51.132;17.062;2023-06-10T09:12:35;8.93;;;7.13;;
18280;SDS011;9266;51.132;17.062;2023-06-10T09:15:06;5.70;;;5.20;;
18280;SDS011;9266;51.132;17.062;2023-06-10T09:17:39;8.30;;;7.38;;
18280;SDS011;9266;51.132;17.062;2023-06-10T09:20:07;9.50;;;8.48;;
18280;SDS011;9266;51.132;17.062;2023-06-10T09:22:41;10.40;;;9.38;;
18280;SDS011;9266;51.132;17.062;2023-06-10T09:25:17;11.05;;;9.95;;
18280;SDS011;9266;51.132;17.062;2023-06-10T09:28:03;12.48;;;11.27;;
18280;SDS011;9266;51.132;17.062;2023-06-10T09:30:33;12.98;;;11.77;;
18280;SDS011;9266;51.132;17.062;2023-06-10T09:33:10;13.43;;;12.23;;
18280;SDS011;9266;51.132;17.062;2023-06-10T09:35:44;11.82;;;10.70;;
18280;SDS011;9266;51.132;17.062;2023-06-10T09:38:14;10.52;;;9.40;;
18280;SDS011;9266;51.132;17.062;2023-06-10T09:40:51;11.48;;;10.30;;
18280;SDS011;9266;51.132;17.062;2023-06-10T09:43:21;10.73;;;9.73;;
18280;SDS011;9266;51.132;17.062;2023-06-10T09:45:48;12.25;;;10.85;;
18280;SDS011;9266;51.132;17.062;2023-06-10T09:48:19;12.27;;;11.00;;
18280;SDS011;9266;51.132;17.062;2023-06-10T09:50:48;13.48;;;12.20;;
18280;SDS011;9266;51.132;17.062;2023-06-10T09:53:16;14.18;;;12.82;;
18280;SDS011;9266;51.132;17.062;2023-06-10T09:55:44;14.68;;;13.25;;
18280;SDS011;9266;51.132;17.062;2023-06-10T09:58:12;12.68;;;11.38;;
18280;SDS011;9266;51.132;17.062;2023-06-10T10:00:39;14.68;;;13.18;;
18280;SDS011;9266;51.132;17.062;2023-06-10T10:03:06;14.02;;;12.57;;
18280;SDS011;9266;51.132;17.062;2023-06-10T10:05:36;14.93;;;13.38;;
18280;SDS011;9266;51.132;17.062;2023-06-10T10:08:04;14.90;;;13.43;;
18280;SDS011;9266;51.132;17.062;2023-06-10T10:10:31;14.30;;;13.00;;
18280;SDS011;9266;51.132;17.062;2023-06-10T10:12:58;13.45;;;12.10;;
18280;SDS011;9266;51.132;17.062;2023-06-10T10:15:31;13.85;;;12.38;;
18280;SDS011;9266;51.132;17.062;2023-06-10T10:18:05;12.48;;;11.27;;
18280;SDS011;9266;51.132;17.062;2023-06-10T10:20:39;12.95;;;11.70;;
18280;SDS011;9266;51.132;17.062;2023-06-10T10:23:11;11.68;;;10.57;;
18280;SDS011;9266;51.132;17.062;2023-06-10T10:25:42;11.27;;;10.27;;
18280;SDS011;9266;51.132;17.062;2023-06-10T10:28:12;12.07;;;10.98;;
18280;SDS011;9266;51.132;17.062;2023-06-10T10:30:45;10.27;;;9.25;;
18280;SDS011;9266;51.132;17.062;2023-06-10T10:33:17;9.20;;;8.30;;
18280;SDS011;9266;51.132;17.062;2023-06-10T10:38:57;12.43;;;9.63;;
18280;SDS011;9266;51.132;17.062;2023-06-10T10:41:27;9.95;;;8.95;;
18280;SDS011;9266;51.132;17.062;2023-06-10T10:43:57;8.85;;;8.05;;
18280;SDS011;9266;51.132;17.062;2023-06-10T10:46:30;8.95;;;8.15;;
18280;SDS011;9266;51.132;17.062;2023-06-10T10:49:10;8.90;;;8.10;;
18280;SDS011;9266;51.132;17.062;2023-06-10T10:51:54;8.95;;;8.15;;
18280;SDS011;9266;51.132;17.062;2023-06-10T10:54:29;9.27;;;8.00;;
18280;SDS011;9266;51.132;17.062;2023-06-10T10:57:11;10.25;;;8.15;;
18280;SDS011;9266;51.132;17.062;2023-06-10T10:59:45;9.20;;;7.70;;
18280;SDS011;9266;51.132;17.062;2023-06-10T11:02:32;8.65;;;7.85;;
18280;SDS011;9266;51.132;17.062;2023-06-10T11:05:00;8.07;;;7.38;;
18280;SDS011;9266;51.132;17.062;2023-06-10T11:07:51;8.30;;;7.50;;
18280;SDS011;9266;51.132;17.062;2023-06-10T11:10:29;10.90;;;7.20;;
18280;SDS011;9266;51.132;17.062;2023-06-10T11:12:57;8.15;;;7.30;;
18280;SDS011;9266;51.132;17.062;2023-06-10T11:15:26;7.90;;;7.15;;
18280;SDS011;9266;51.132;17.062;2023-06-10T11:18:11;7.85;;;7.05;;
18280;SDS011;9266;51.132;17.062;2023-06-10T11:23:32;8.32;;;6.53;;
18280;SDS011;9266;51.132;17.062;2023-06-10T11:26:11;8.73;;;6.70;;
18280;SDS011;9266;51.132;17.062;2023-06-10T11:28:40;9.68;;;6.45;;
18280;SDS011;9266;51.132;17.062;2023-06-10T11:31:08;7.63;;;6.88;;
18280;SDS011;9266;51.132;17.062;2023-06-10T11:33:45;8.52;;;6.65;;
18280;SDS011;9266;51.132;17.062;2023-06-10T11:36:14;7.18;;;6.28;;
18280;SDS011;9266;51.132;17.062;2023-06-10T11:38:44;10.32;;;6.65;;
18280;SDS011;9266;51.132;17.062;2023-06-10T11:41:14;7.65;;;6.10;;
18280;SDS011;9266;51.132;17.062;2023-06-10T11:43:42;7.40;;;6.55;;
18280;SDS011;9266;51.132;17.062;2023-06-10T11:46:10;7.53;;;6.80;;
18280;SDS011;9266;51.132;17.062;2023-06-10T11:48:38;8.00;;;6.50;;
18280;SDS011;9266;51.132;17.062;2023-06-10T11:51:08;6.97;;;6.10;;
18280;SDS011;9266;51.132;17.062;2023-06-10T11:53:35;8.52;;;5.60;;
18280;SDS011;9266;51.132;17.062;2023-06-10T11:56:05;7.03;;;6.10;;
18280;SDS011;9266;51.132;17.062;2023-06-10T11:58:37;9.68;;;6.07;;
18280;SDS011;9266;51.132;17.062;2023-06-10T12:01:11;7.75;;;5.90;;
18280;SDS011;9266;51.132;17.062;2023-06-10T12:03:47;6.38;;;5.75;;
18280;SDS011;9266;51.132;17.062;2023-06-10T12:06:18;10.02;;;5.80;;
18280;SDS011;9266;51.132;17.062;2023-06-10T12:08:48;6.53;;;5.53;;
18280;SDS011;9266;51.132;17.062;2023-06-10T12:11:19;6.20;;;5.60;;
18280;SDS011;9266;51.132;17.062;2023-06-10T12:13:52;6.30;;;5.70;;
18280;SDS011;9266;51.132;17.062;2023-06-10T12:16:19;7.57;;;5.63;;
18280;SDS011;9266;51.132;17.062;2023-06-10T12:18:50;8.60;;;6.03;;
18280;SDS011;9266;51.132;17.062;2023-06-10T12:21:18;6.45;;;5.80;;
18280;SDS011;9266;51.132;17.062;2023-06-10T12:24:03;9.20;;;6.55;;
18280;SDS011;9266;51.132;17.062;2023-06-10T12:26:38;7.05;;;5.95;;
18280;SDS011;9266;51.132;17.062;2023-06-10T12:29:21;9.13;;;6.10;;
18280;SDS011;9266;51.132;17.062;2023-06-10T12:32:00;8.57;;;6.25;;
18280;SDS011;9266;51.132;17.062;2023-06-10T12:34:33;7.43;;;5.90;;
18280;SDS011;9266;51.132;17.062;2023-06-10T12:37:02;6.72;;;6.13;;
18280;SDS011;9266;51.132;17.062;2023-06-10T12:39:31;6.95;;;6.00;;
18280;SDS011;9266;51.132;17.062;2023-06-10T12:42:01;7.45;;;5.75;;
18280;SDS011;9266;51.132;17.062;2023-06-10T12:44:31;7.85;;;5.95;;
18280;SDS011;9266;51.132;17.062;2023-06-10T12:46:59;6.72;;;5.60;;
18280;SDS011;9266;51.132;17.062;2023-06-10T12:49:27;9.63;;;6.38;;
18280;SDS011;9266;51.132;17.062;2023-06-10T12:51:54;7.22;;;5.30;;
18280;SDS011;9266;51.132;17.062;2023-06-10T12:54:21;8.15;;;5.70;;
18280;SDS011;9266;51.132;17.062;2023-06-10T12:56:49;8.77;;;5.70;;
18280;SDS011;9266;51.132;17.062;2023-06-10T12:59:18;7.30;;;5.40;;
18280;SDS011;9266;51.132;17.062;2023-06-10T13:01:53;10.93;;;5.55;;
18280;SDS011;9266;51.132;17.062;2023-06-10T13:04:21;7.10;;;5.60;;
18280;SDS011;9266;51.132;17.062;2023-06-10T13:06:48;5.57;;;5.07;;
18280;SDS011;9266;51.132;17.062;2023-06-10T13:09:16;7.25;;;5.03;;
18280;SDS011;9266;51.132;17.062;2023-06-10T13:11:43;6.03;;;4.63;;
18280;SDS011;9266;51.132;17.062;2023-06-10T13:14:11;6.10;;;5.20;;
18280;SDS011;9266;51.132;17.062;2023-06-10T13:16:39;5.13;;;4.63;;
18280;SDS011;9266;51.132;17.062;2023-06-10T13:19:15;7.78;;;5.18;;
18280;SDS011;9266;51.132;17.062;2023-06-10T13:21:42;7.03;;;4.78;;
18280;SDS011;9266;51.132;17.062;2023-06-10T13:24:14;7.93;;;5.00;;
18280;SDS011;9266;51.132;17.062;2023-06-10T13:26:43;6.65;;;4.60;;
18280;SDS011;9266;51.132;17.062;2023-06-10T13:29:10;8.40;;;4.88;;
18280;SDS011;9266;51.132;17.062;2023-06-10T13:32:01;6.40;;;5.03;;
18280;SDS011;9266;51.132;17.062;2023-06-10T13:34:29;6.18;;;4.55;;
18280;SDS011;9266;51.132;17.062;2023-06-10T13:37:10;6.10;;;4.50;;
18280;SDS011;9266;51.132;17.062;2023-06-10T13:39:45;5.53;;;4.95;;
18280;SDS011;9266;51.132;17.062;2023-06-10T13:42:13;6.15;;;4.80;;
18280;SDS011;9266;51.132;17.062;2023-06-10T13:44:50;6.63;;;4.55;;
18280;SDS011;9266;51.132;17.062;2023-06-10T13:47:18;5.38;;;4.60;;
18280;SDS011;9266;51.132;17.062;2023-06-10T13:49:48;5.68;;;4.22;;
18280;SDS011;9266;51.132;17.062;2023-06-10T13:52:16;5.78;;;4.70;;
18280;SDS011;9266;51.132;17.062;2023-06-10T13:54:45;6.32;;;4.75;;
18280;SDS011;9266;51.132;17.062;2023-06-10T13:57:12;7.22;;;4.63;;
18280;SDS011;9266;51.132;17.062;2023-06-10T13:59:41;6.63;;;4.55;;
18280;SDS011;9266;51.132;17.062;2023-06-10T14:02:10;7.75;;;4.38;;
18280;SDS011;9266;51.132;17.062;2023-06-10T14:04:37;6.15;;;4.28;;
18280;SDS011;9266;51.132;17.062;2023-06-10T14:07:06;6.65;;;4.60;;
18280;SDS011;9266;51.132;17.062;2023-06-10T14:09:36;5.97;;;4.60;;
18280;SDS011;9266;51.132;17.062;2023-06-10T14:12:04;6.82;;;4.35;;
18280;SDS011;9266;51.132;17.062;2023-06-10T14:14:36;7.80;;;4.05;;
18280;SDS011;9266;51.132;17.062;2023-06-10T14:17:04;6.82;;;4.05;;
18280;SDS011;9266;51.132;17.062;2023-06-10T14:19:34;5.40;;;4.05;;
18280;SDS011;9266;51.132;17.062;2023-06-10T14:22:06;9.95;;;4.75;;
18280;SDS011;9266;51.132;17.062;2023-06-10T14:24:37;4.82;;;4.20;;
18280;SDS011;9266;51.132;17.062;2023-06-10T14:27:04;7.18;;;4.70;;
18280;SDS011;9266;51.132;17.062;2023-06-10T14:29:32;7.95;;;4.60;;
18280;SDS011;9266;51.132;17.062;2023-06-10T14:32:03;7.38;;;4.20;;
18280;SDS011;9266;51.132;17.062;2023-06-10T14:34:36;5.03;;;4.00;;
18280;SDS011;9266;51.132;17.062;2023-06-10T14:37:11;8.35;;;4.28;;
18280;SDS011;9266;51.132;17.062;2023-06-10T14:39:42;6.15;;;4.18;;
18280;SDS011;9266;51.132;17.062;2023-06-10T14:42:09;4.32;;;3.92;;
18280;SDS011;9266;51.132;17.062;2023-06-10T14:44:40;5.68;;;4.45;;
18280;SDS011;9266;51.132;17.062;2023-06-10T14:47:07;7.57;;;4.60;;
18280;SDS011;9266;51.132;17.062;2023-06-10T14:49:35;7.60;;;4.45;;